Time;durP1;ratioP1;P1;durP2;ratioP2;P2;SDS_P1;SDS_P2;PMS_P1;PMS_P2;Temp;Humidity;BMP_temperature;BMP_pressure;BME280_temperature;BME280_humidity;BME280_pressure;Samples;Min_cycle;Max_cycle;Signal;HPM_P1;HPM_P2
2021/04/18 00:00:56;;;;;;;;;;;4.10;99.90;;;;;;5068600;28;19909;-72
2021/04/18 00:03:22;;;;;;;;;;;4.10;99.90;;;;;;5089950;28;19915;-72
2021/04/18 00:05:48;;;;;;;;;;;4.10;99.90;;;;;;5094345;28;19908;-72
2021/04/18 00:08:13;;;;;;;;;;;4.10;99.90;;;;;;5095250;28;19908;-72
2021/04/18 00:10:39;;;;;;;;;;;4.00;99.90;;;;;;5095264;28;20277;-72
2021/04/18 00:13:05;;;;;;;;;;;4.00;99.90;;;;;;5094532;28;19912;-72
2021/04/18 00:15:31;;;;;;;;;;;4.00;99.90;;;;;;5094789;28;20376;-72
2021/04/18 00:17:56;;;;;;;;;;;4.00;99.90;;;;;;5094399;28;19950;-72
2021/04/18 00:20:22;;;;;;;;;;;4.00;99.90;;;;;;5094985;28;19912;-72
2021/04/18 00:22:48;;;;;;;;;;;4.00;99.90;;;;;;5094754;28;19961;-72
2021/04/18 00:25:15;;;;;;;;;;;4.10;99.90;;;;;;5094791;28;19908;-72
2021/04/18 00:27:41;;;;;;;;;;;4.00;99.90;;;;;;5093375;28;19915;-72
2021/04/18 00:30:11;;;;;;;;;;;4.10;99.90;;;;;;5094714;28;19990;-72
2021/04/18 00:32:37;;;;;;;;;;;4.00;99.90;;;;;;5067042;28;19908;-72
2021/04/18 00:35:03;;;;;;;;;;;4.00;99.90;;;;;;5089192;28;19931;-72
2021/04/18 00:37:28;;;;;;;;;;;4.00;99.90;;;;;;5093658;28;19912;-72
2021/04/18 00:39:54;;;;;;;;;;;4.00;99.90;;;;;;5094672;28;20014;-72
2021/04/18 00:42:20;;;;;;;;;;;4.00;99.90;;;;;;5094418;28;19927;-72
2021/04/18 00:44:45;;;;;;;;;;;3.90;99.90;;;;;;5092946;28;19916;-72
2021/04/18 00:47:11;;;;;;;;;;;3.90;99.90;;;;;;5093510;28;19908;-72
2021/04/18 00:49:36;;;;;;;;;;;3.90;99.90;;;;;;5093804;28;19917;-72
2021/04/18 00:52:02;;;;;;;;;;;3.90;99.90;;;;;;5094265;28;20089;-72
2021/04/18 00:54:27;;;;;;;;;;;3.80;99.90;;;;;;5094266;28;19908;-72
2021/04/18 00:56:53;;;;;;;;;;;3.80;99.90;;;;;;5093154;28;20276;-72
2021/04/18 00:59:18;;;;;;;;;;;3.80;99.90;;;;;;5093948;28;19908;-72
2021/04/18 01:01:44;;;;;;;;;;;3.90;99.90;;;;;;5081786;28;20173;-72
2021/04/18 01:04:09;;;;;;;;;;;3.90;99.90;;;;;;5081414;28;19908;-72
2021/04/18 01:06:35;;;;;;;;;;;3.90;99.90;;;;;;5093148;28;19928;-72
2021/04/18 01:09:00;;;;;;;;;;;3.90;99.90;;;;;;5093983;28;19953;-72
2021/04/18 01:11:26;;;;;;;;;;;3.90;99.90;;;;;;5091506;28;19931;-72
2021/04/18 01:13:53;;;;;;;;;;;3.90;99.90;;;;;;5093702;28;19961;-72
2021/04/18 01:16:18;;;;;;;;;;;3.90;99.90;;;;;;5092980;28;19912;-72
2021/04/18 01:18:43;;;;;;;;;;;4.00;99.90;;;;;;5092297;28;20416;-72
2021/04/18 01:21:12;;;;;;;;;;;4.00;99.90;;;;;;5093753;28;19914;-72
2021/04/18 01:23:38;;;;;;;;;;;4.00;99.90;;;;;;5093994;28;19956;-72
2021/04/18 01:26:04;;;;;;;;;;;4.00;99.90;;;;;;5096789;28;20393;-72
2021/04/18 01:28:29;;;;;;;;;;;4.00;99.90;;;;;;5097786;28;19908;-72
2021/04/18 01:30:55;;;;;;;;;;;4.00;99.90;;;;;;5092134;28;20281;-72
2021/04/18 01:33:20;;;;;;;;;;;4.00;99.90;;;;;;5082353;28;19908;-72
2021/04/18 01:35:47;;;;;;;;;;;3.90;99.90;;;;;;5096175;28;19916;-72
2021/04/18 01:38:13;;;;;;;;;;;3.80;99.90;;;;;;5096787;28;19934;-72
2021/04/18 01:40:39;;;;;;;;;;;3.70;99.90;;;;;;5097525;28;19908;-72
2021/04/18 01:43:04;;;;;;;;;;;3.70;99.90;;;;;;5093705;28;20010;-72
2021/04/18 01:45:30;;;;;;;;;;;3.70;99.90;;;;;;5093306;28;19912;-72
2021/04/18 01:47:56;;;;;;;;;;;3.70;99.90;;;;;;5092508;28;19915;-72
2021/04/18 01:50:21;;;;;;;;;;;3.70;99.90;;;;;;5092154;28;19923;-72
2021/04/18 01:52:47;;;;;;;;;;;3.70;99.90;;;;;;5093088;28;20319;-72
2021/04/18 01:55:13;;;;;;;;;;;3.70;99.90;;;;;;5092899;28;19913;-72
2021/04/18 01:57:39;;;;;;;;;;;3.70;99.90;;;;;;5091948;28;19920;-72
2021/04/18 02:00:06;;;;;;;;;;;3.70;99.90;;;;;;5092678;28;19912;-72
2021/04/18 02:02:32;;;;;;;;;;;3.80;99.90;;;;;;5064641;28;19958;-72
2021/04/18 02:04:57;;;;;;;;;;;3.80;99.90;;;;;;5072552;28;19912;-72
2021/04/18 02:07:23;;;;;;;;;;;3.80;99.90;;;;;;5071729;28;19909;-72
2021/04/18 02:09:48;;;;;;;;;;;3.90;99.90;;;;;;5072259;28;19908;-72
2021/04/18 02:12:14;;;;;;;;;;;3.90;99.90;;;;;;5072512;28;19942;-72
2021/04/18 02:14:39;;;;;;;;;;;3.90;99.90;;;;;;5072305;28;19908;-72
2021/04/18 02:17:05;;;;;;;;;;;3.90;99.90;;;;;;5070396;28;19958;-72
2021/04/18 02:19:31;;;;;;;;;;;3.90;99.90;;;;;;5071004;28;19909;-72
2021/04/18 02:21:57;;;;;;;;;;;3.90;99.90;;;;;;5070793;28;19935;-72
2021/04/18 02:24:22;;;;;;;;;;;3.90;99.90;;;;;;5071003;28;19967;-72
2021/04/18 02:26:48;;;;;;;;;;;3.90;99.90;;;;;;5071323;28;20061;-72
2021/04/18 02:29:14;;;;;;;;;;;3.90;99.90;;;;;;5071912;28;19987;-72
2021/04/18 02:31:39;;;;;;;;;;;3.90;99.90;;;;;;5067547;28;19908;-72
2021/04/18 02:34:05;;;;;;;;;;;3.90;99.90;;;;;;5091989;28;19909;-72
2021/04/18 02:36:31;;;;;;;;;;;3.90;99.90;;;;;;5091268;28;20046;-71
2021/04/18 02:38:56;;;;;;;;;;;3.90;99.90;;;;;;5090551;28;19954;-71
2021/04/18 02:41:22;;;;;;;;;;;3.80;99.90;;;;;;5092015;28;19915;-71
2021/04/18 02:43:47;;;;;;;;;;;3.80;99.90;;;;;;5091790;28;19919;-71
2021/04/18 02:46:13;;;;;;;;;;;3.80;99.90;;;;;;5091130;28;19912;-71
2021/04/18 02:48:39;;;;;;;;;;;3.80;99.90;;;;;;5092075;28;19955;-71
2021/04/18 02:51:04;;;;;;;;;;;3.80;99.90;;;;;;5092082;28;19912;-71
2021/04/18 02:53:30;;;;;;;;;;;3.80;99.90;;;;;;5091635;28;19947;-71
2021/04/18 02:55:55;;;;;;;;;;;3.80;99.90;;;;;;5091089;28;19908;-71
2021/04/18 02:58:21;;;;;;;;;;;3.70;99.90;;;;;;5090147;28;20389;-71
2021/04/18 03:00:46;;;;;;;;;;;3.70;99.90;;;;;;5083609;28;20385;-70
2021/04/18 03:03:12;;;;;;;;;;;3.70;99.90;;;;;;5075256;28;19908;-71
2021/04/18 03:05:37;;;;;;;;;;;3.70;99.90;;;;;;5090977;28;19923;-71
2021/04/18 03:08:03;;;;;;;;;;;3.70;99.90;;;;;;5090898;28;19908;-71
2021/04/18 03:10:29;;;;;;;;;;;3.70;99.90;;;;;;5091531;28;19995;-71
2021/04/18 03:12:55;;;;;;;;;;;3.70;99.90;;;;;;5091785;28;19964;-71
2021/04/18 03:15:21;;;;;;;;;;;3.70;99.90;;;;;;5091696;28;19931;-71
2021/04/18 03:17:46;;;;;;;;;;;3.70;99.90;;;;;;5090459;28;19912;-70
2021/04/18 03:20:12;;;;;;;;;;;3.70;99.90;;;;;;5091324;28;19919;-71
2021/04/18 03:22:38;;;;;;;;;;;3.70;99.90;;;;;;5091036;28;19912;-71
2021/04/18 03:25:03;;;;;;;;;;;3.70;99.90;;;;;;5091342;28;19942;-71
2021/04/18 03:27:29;;;;;;;;;;;3.70;99.90;;;;;;5090666;28;20006;-71
2021/04/18 03:29:54;;;;;;;;;;;3.70;99.90;;;;;;5091110;28;19912;-71
2021/04/18 03:32:20;;;;;;;;;;;3.70;99.90;;;;;;5090343;28;20354;-71
2021/04/18 03:34:45;;;;;;;;;;;3.70;99.90;;;;;;5070527;28;19983;-72
2021/04/18 03:37:11;;;;;;;;;;;3.70;99.90;;;;;;5070026;28;19916;-71
2021/04/18 03:39:36;;;;;;;;;;;3.70;99.90;;;;;;5071151;28;19915;-71
2021/04/18 03:42:02;;;;;;;;;;;3.80;99.90;;;;;;5071067;28;19908;-71
2021/04/18 03:44:27;;;;;;;;;;;3.80;99.90;;;;;;5070716;28;19909;-71
2021/04/18 03:46:53;;;;;;;;;;;3.80;99.90;;;;;;5070509;28;19948;-71
2021/04/18 03:49:18;;;;;;;;;;;3.80;99.90;;;;;;5071042;28;20259;-71
2021/04/18 03:51:45;;;;;;;;;;;3.80;99.90;;;;;;5070866;28;19916;-71
2021/04/18 03:54:10;;;;;;;;;;;3.80;99.90;;;;;;5070844;28;19914;-71
2021/04/18 03:56:36;;;;;;;;;;;3.90;99.90;;;;;;5069968;28;19991;-71
2021/04/18 03:59:01;;;;;;;;;;;3.80;99.90;;;;;;5070919;28;19909;-71
2021/04/18 04:01:28;;;;;;;;;;;3.80;99.90;;;;;;5061226;28;20003;-71
2021/04/18 04:03:53;;;;;;;;;;;3.80;99.90;;;;;;5069562;28;19953;-71
2021/04/18 04:06:19;;;;;;;;;;;3.80;99.90;;;;;;5089968;28;19911;-71
2021/04/18 04:08:44;;;;;;;;;;;3.80;99.90;;;;;;5090857;28;20438;-71
2021/04/18 04:11:10;;;;;;;;;;;3.80;99.90;;;;;;5091157;28;19951;-71
2021/04/18 04:13:35;;;;;;;;;;;3.80;99.90;;;;;;5090753;28;19954;-71
2021/04/18 04:16:01;;;;;;;;;;;3.80;99.90;;;;;;5090072;28;19912;-71
2021/04/18 04:18:26;;;;;;;;;;;3.80;99.90;;;;;;5091213;28;19921;-71
2021/04/18 04:20:52;;;;;;;;;;;3.80;99.90;;;;;;5090455;28;20383;-71
2021/04/18 04:23:17;;;;;;;;;;;3.80;99.90;;;;;;5090667;28;19953;-71
2021/04/18 04:25:43;;;;;;;;;;;3.90;99.90;;;;;;5090079;28;19908;-71
2021/04/18 04:28:08;;;;;;;;;;;3.90;99.90;;;;;;5090825;28;20502;-71
2021/04/18 04:30:34;;;;;;;;;;;3.90;99.90;;;;;;5086021;28;19908;-71
2021/04/18 04:33:00;;;;;;;;;;;3.90;99.90;;;;;;5071267;28;20414;-71
2021/04/18 04:35:25;;;;;;;;;;;3.90;99.90;;;;;;5090356;28;19912;-71
2021/04/18 04:37:51;;;;;;;;;;;3.90;99.90;;;;;;5089704;28;19970;-71
2021/04/18 04:40:16;;;;;;;;;;;3.80;99.90;;;;;;5090663;28;19934;-71
2021/04/18 04:42:42;;;;;;;;;;;3.80;99.90;;;;;;5090567;28;20002;-71
2021/04/18 04:45:08;;;;;;;;;;;3.80;99.90;;;;;;5090982;28;19999;-71
2021/04/18 04:47:33;;;;;;;;;;;3.80;99.90;;;;;;5093646;28;20208;-71
2021/04/18 04:49:59;;;;;;;;;;;3.70;99.90;;;;;;5094099;28;19948;-71
2021/04/18 04:52:24;;;;;;;;;;;3.70;99.90;;;;;;5094063;28;19955;-71
2021/04/18 04:54:51;;;;;;;;;;;3.70;99.90;;;;;;5094300;28;19960;-71
2021/04/18 04:57:17;;;;;;;;;;;3.70;99.90;;;;;;5093179;28;19968;-71
2021/04/18 04:59:42;;;;;;;;;;;3.70;99.90;;;;;;5093992;28;19912;-71
2021/04/18 05:02:08;;;;;;;;;;;3.70;99.90;;;;;;5070441;28;20392;-71
2021/04/18 05:04:33;;;;;;;;;;;3.70;99.90;;;;;;5093190;28;19908;-71
2021/04/18 05:06:59;;;;;;;;;;;3.60;99.90;;;;;;5093019;28;19942;-71
2021/04/18 05:09:25;;;;;;;;;;;3.60;99.90;;;;;;5093855;28;19995;-71
2021/04/18 05:11:50;;;;;;;;;;;3.70;99.90;;;;;;5093994;28;19908;-72
2021/04/18 05:14:16;;;;;;;;;;;3.70;99.90;;;;;;5093542;28;19915;-71
2021/04/18 05:16:41;;;;;;;;;;;3.70;99.90;;;;;;5092869;28;19908;-71
2021/04/18 05:19:07;;;;;;;;;;;3.80;99.90;;;;;;5093489;28;20430;-71
2021/04/18 05:21:32;;;;;;;;;;;3.80;99.90;;;;;;5093519;28;19919;-71
2021/04/18 05:23:58;;;;;;;;;;;3.90;99.90;;;;;;5093665;28;20266;-71
2021/04/18 05:26:23;;;;;;;;;;;3.90;99.90;;;;;;5092844;28;19935;-71
2021/04/18 05:28:49;;;;;;;;;;;4.00;99.90;;;;;;5093386;28;19908;-71
2021/04/18 05:31:14;;;;;;;;;;;4.00;99.90;;;;;;5077427;28;19917;-71
2021/04/18 05:33:39;;;;;;;;;;;4.00;99.90;;;;;;5084684;28;20432;-71
2021/04/18 05:36:05;;;;;;;;;;;4.00;99.90;;;;;;5092191;28;19970;-71
2021/04/18 05:38:31;;;;;;;;;;;4.10;99.90;;;;;;5093248;28;19964;-71
2021/04/18 05:40:56;;;;;;;;;;;4.10;99.90;;;;;;5093052;28;19908;-71
2021/04/18 05:43:22;;;;;;;;;;;4.20;99.90;;;;;;5093285;28;20019;-71
2021/04/18 05:45:47;;;;;;;;;;;4.20;99.90;;;;;;5092312;28;19908;-71
2021/04/18 05:48:13;;;;;;;;;;;4.30;99.90;;;;;;5092836;28;20289;-71
2021/04/18 05:50:39;;;;;;;;;;;4.40;99.90;;;;;;5091789;28;20266;-71
2021/04/18 05:53:04;;;;;;;;;;;4.40;99.90;;;;;;5093103;28;19912;-71
2021/04/18 05:55:30;;;;;;;;;;;4.50;99.90;;;;;;5093025;28;19908;-71
2021/04/18 05:57:55;;;;;;;;;;;4.50;99.90;;;;;;5091921;28;20397;-71
2021/04/18 06:00:21;;;;;;;;;;;4.60;99.90;;;;;;5091680;28;20262;-71
2021/04/18 06:02:47;;;;;;;;;;;4.60;99.90;;;;;;5056950;28;19909;-71
2021/04/18 06:05:13;;;;;;;;;;;4.60;99.90;;;;;;5072306;28;19909;-71
2021/04/18 06:07:38;;;;;;;;;;;4.60;99.90;;;;;;5071613;28;19935;-71
2021/04/18 06:10:04;;;;;;;;;;;4.60;99.90;;;;;;5072498;28;20073;-71
2021/04/18 06:12:30;;;;;;;;;;;4.60;99.90;;;;;;5072436;28;19908;-72
2021/04/18 06:14:55;;;;;;;;;;;4.60;99.90;;;;;;5072246;28;19908;-72
2021/04/18 06:17:21;;;;;;;;;;;4.60;99.90;;;;;;5071269;28;19912;-71
2021/04/18 06:19:46;;;;;;;;;;;4.50;99.90;;;;;;5071943;28;19909;-71
2021/04/18 06:22:12;;;;;;;;;;;4.50;99.90;;;;;;5071970;28;19908;-72
2021/04/18 06:24:37;;;;;;;;;;;4.50;99.90;;;;;;5072275;28;19908;-71
2021/04/18 06:27:03;;;;;;;;;;;4.40;99.90;;;;;;5071270;28;19916;-72
2021/04/18 06:29:28;;;;;;;;;;;4.40;99.90;;;;;;5071758;28;19908;-72
2021/04/18 06:31:54;;;;;;;;;;;4.50;99.90;;;;;;5063827;28;19908;-72
2021/04/18 06:34:22;;;;;;;;;;;4.60;99.90;;;;;;5080477;28;19915;-72
2021/04/18 06:36:51;;;;;;;;;;;4.70;99.90;;;;;;5091695;28;20097;-71
2021/04/18 06:39:17;;;;;;;;;;;4.70;99.90;;;;;;5093121;28;19953;-71
2021/04/18 06:41:48;;;;;;;;;;;4.70;99.90;;;;;;5093236;28;20344;-72
2021/04/18 06:44:15;;;;;;;;;;;4.70;99.90;;;;;;5091662;28;19908;-71
2021/04/18 06:46:42;;;;;;;;;;;4.80;99.90;;;;;;5090801;28;19908;-72
2021/04/18 06:49:07;;;;;;;;;;;4.80;99.90;;;;;;5092309;28;19908;-71
2021/04/18 06:51:35;;;;;;;;;;;4.90;99.90;;;;;;5093421;28;20250;-71
2021/04/18 06:54:00;;;;;;;;;;;4.90;99.90;;;;;;5092676;28;19953;-71
2021/04/18 06:56:26;;;;;;;;;;;4.90;99.90;;;;;;5090985;28;20312;-71
2021/04/18 06:58:55;;;;;;;;;;;5.00;99.90;;;;;;5091760;28;19919;-72
2021/04/18 07:01:20;;;;;;;;;;;5.10;99.90;;;;;;5075820;28;19908;-72
2021/04/18 07:04:06;;;;;;;;;;;5.10;99.90;;;;;;5091623;28;20398;-71
2021/04/18 07:06:41;;;;;;;;;;;5.20;99.90;;;;;;5090714;28;19908;-71
2021/04/18 07:09:07;;;;;;;;;;;5.20;99.90;;;;;;5091275;28;20360;-72
2021/04/18 07:11:43;;;;;;;;;;;5.30;99.90;;;;;;5091929;28;19908;-72
2021/04/18 07:14:39;;;;;;;;;;;5.40;99.90;;;;;;5091505;28;19941;-71
2021/04/18 07:17:09;;;;;;;;;;;5.30;99.90;;;;;;5090033;28;19922;-71
2021/04/18 07:19:36;;;;;;;;;;;5.30;99.90;;;;;;5091789;28;19908;-72
2021/04/18 07:22:02;;;;;;;;;;;5.40;99.90;;;;;;5091688;28;19915;-72
2021/04/18 07:24:28;;;;;;;;;;;5.40;99.90;;;;;;5090063;28;19912;-71
2021/04/18 07:26:55;;;;;;;;;;;5.50;99.90;;;;;;5090639;28;19915;-71
2021/04/18 07:29:21;;;;;;;;;;;5.50;99.90;;;;;;5091276;28;20315;-71
2021/04/18 07:31:47;;;;;;;;;;;5.60;99.90;;;;;;5070969;28;20001;-71
2021/04/18 07:34:14;;;;;;;;;;;5.60;99.90;;;;;;5071085;28;19996;-71
2021/04/18 07:36:42;;;;;;;;;;;5.60;99.90;;;;;;5069927;28;19923;-73
2021/04/18 07:39:09;;;;;;;;;;;5.70;99.90;;;;;;5070805;28;20416;-71
2021/04/18 07:41:42;;;;;;;;;;;5.70;99.90;;;;;;5071329;28;19955;-71
2021/04/18 07:44:14;;;;;;;;;;;5.80;99.90;;;;;;5071032;28;19908;-71
2021/04/18 07:46:42;;;;;;;;;;;5.80;99.90;;;;;;5069947;28;19909;-72
2021/04/18 07:49:08;;;;;;;;;;;5.90;99.90;;;;;;5068829;28;20010;-71
2021/04/18 07:51:34;;;;;;;;;;;6.00;99.90;;;;;;5070912;28;19915;-72
2021/04/18 07:53:59;;;;;;;;;;;6.00;99.90;;;;;;5071049;28;19908;-72
2021/04/18 07:56:25;;;;;;;;;;;6.00;99.90;;;;;;5070169;28;19951;-71
2021/04/18 07:58:51;;;;;;;;;;;6.00;99.90;;;;;;5070790;28;19912;-72
2021/04/18 08:01:16;;;;;;;;;;;6.00;99.90;;;;;;5070768;28;19995;-72
2021/04/18 08:03:43;;;;;;;;;;;6.00;99.90;;;;;;5071074;28;19916;-71
2021/04/18 08:06:09;;;;;;;;;;;6.20;99.90;;;;;;5069924;28;20365;-72
2021/04/18 08:08:48;;;;;;;;;;;6.20;99.90;;;;;;5070854;28;19912;-71
2021/04/18 08:11:14;;;;;;;;;;;6.40;99.90;;;;;;5069638;28;19908;-71
2021/04/18 08:13:43;;;;;;;;;;;6.50;99.90;;;;;;5070861;28;19917;-71
2021/04/18 08:16:09;;;;;;;;;;;6.50;99.90;;;;;;5069580;28;19908;-71
2021/04/18 08:18:38;;;;;;;;;;;6.50;99.90;;;;;;5069288;28;19954;-71
2021/04/18 08:21:22;;;;;;;;;;;6.50;99.90;;;;;;5074538;28;20251;-71
2021/04/18 08:23:48;;;;;;;;;;;6.50;99.90;;;;;;5075099;28;19908;-71
2021/04/18 08:26:15;;;;;;;;;;;6.40;99.90;;;;;;5073620;28;19908;-71
2021/04/18 08:28:58;;;;;;;;;;;6.50;99.90;;;;;;5074981;28;19916;-73
2021/04/18 08:31:24;;;;;;;;;;;6.60;99.90;;;;;;5074500;28;20281;-71
2021/04/18 08:33:51;;;;;;;;;;;6.60;99.90;;;;;;5074918;28;19909;-71
2021/04/18 08:36:27;;;;;;;;;;;6.70;99.90;;;;;;5073208;28;19964;-71
2021/04/18 08:39:04;;;;;;;;;;;6.90;99.90;;;;;;5074309;28;19995;-72
2021/04/18 08:41:39;;;;;;;;;;;7.10;99.90;;;;;;5074307;28;19915;-71
2021/04/18 08:44:19;;;;;;;;;;;7.10;99.90;;;;;;5073987;28;19913;-71
2021/04/18 08:46:45;;;;;;;;;;;7.10;99.90;;;;;;5073253;28;20357;-71
2021/04/18 08:49:11;;;;;;;;;;;7.20;99.90;;;;;;5073814;28;19909;-71
2021/04/18 08:51:38;;;;;;;;;;;7.20;99.90;;;;;;5094008;28;19915;-71
2021/04/18 08:54:04;;;;;;;;;;;7.10;99.90;;;;;;5094269;28;19912;-71
2021/04/18 08:56:49;;;;;;;;;;;7.00;99.90;;;;;;5093344;28;19915;-70
2021/04/18 08:59:15;;;;;;;;;;;6.90;99.90;;;;;;5093789;28;19965;-72
2021/04/18 09:01:53;;;;;;;;;;;6.80;99.90;;;;;;5094301;28;20340;-72
2021/04/18 09:04:22;;;;;;;;;;;6.70;99.90;;;;;;5094574;28;19913;-72
2021/04/18 09:06:48;;;;;;;;;;;6.60;99.90;;;;;;5093134;28;19961;-72
2021/04/18 09:09:14;;;;;;;;;;;6.50;99.90;;;;;;5093994;28;20322;-72
2021/04/18 09:11:42;;;;;;;;;;;6.50;99.90;;;;;;5094031;28;19936;-71
2021/04/18 09:14:07;;;;;;;;;;;6.50;99.90;;;;;;5093624;28;20403;-73
2021/04/18 09:16:34;;;;;;;;;;;6.60;99.90;;;;;;5092894;28;19947;-72
2021/04/18 09:19:18;;;;;;;;;;;6.70;99.90;;;;;;5076499;28;20013;-72
2021/04/18 09:21:53;;;;;;;;;;;6.80;99.90;;;;;;5072609;28;19913;-72
2021/04/18 09:24:18;;;;;;;;;;;6.80;99.90;;;;;;5072357;28;20365;-73
2021/04/18 09:27:05;;;;;;;;;;;6.80;99.90;;;;;;5071780;28;19963;-72
2021/04/18 09:29:31;;;;;;;;;;;6.90;99.90;;;;;;5071859;28;20441;-72
2021/04/18 09:32:04;;;;;;;;;;;7.00;99.90;;;;;;5072860;28;19909;-72
2021/04/18 09:34:30;;;;;;;;;;;7.00;99.90;;;;;;5073676;28;19961;-72
2021/04/18 09:36:57;;;;;;;;;;;7.10;99.90;;;;;;5072158;28;20004;-72
2021/04/18 09:39:30;;;;;;;;;;;7.20;99.90;;;;;;5073321;28;19930;-72
2021/04/18 09:41:56;;;;;;;;;;;7.30;99.90;;;;;;5069185;28;19990;-72
2021/04/18 09:44:44;;;;;;;;;;;7.30;99.90;;;;;;5062318;28;20000;-71
2021/04/18 09:47:20;;;;;;;;;;;7.30;99.90;;;;;;5053062;28;19955;-72
2021/04/18 09:49:53;;;;;;;;;;;7.50;99.90;;;;;;5078155;28;19912;-72
2021/04/18 09:52:28;;;;;;;;;;;7.60;99.90;;;;;;5093231;28;19915;-72
2021/04/18 09:55:05;;;;;;;;;;;7.70;99.90;;;;;;5093428;28;19915;-72
2021/04/18 09:57:38;;;;;;;;;;;7.70;99.90;;;;;;5091926;28;20070;-73
2021/04/18 10:00:06;;;;;;;;;;;7.80;99.90;;;;;;5092756;28;19912;-72
2021/04/18 10:02:31;;;;;;;;;;;7.80;99.90;;;;;;5091655;28;19908;-72
2021/04/18 10:05:17;;;;;;;;;;;7.90;99.90;;;;;;5093057;28;19912;-71
2021/04/18 10:07:43;;;;;;;;;;;7.90;99.90;;;;;;5091525;28;19978;-71
2021/04/18 10:10:10;;;;;;;;;;;8.00;99.90;;;;;;5092119;28;19912;-71
2021/04/18 10:12:46;;;;;;;;;;;7.90;99.90;;;;;;5092720;28;20383;-72
2021/04/18 10:15:11;;;;;;;;;;;7.90;99.90;;;;;;5092453;28;19916;-71
2021/04/18 10:17:37;;;;;;;;;;;7.90;99.90;;;;;;5086236;28;20313;-71
2021/04/18 10:20:04;;;;;;;;;;;7.90;99.90;;;;;;5072174;28;20366;-71
2021/04/18 10:22:30;;;;;;;;;;;7.90;99.90;;;;;;5072236;28;19908;-72
2021/04/18 10:24:57;;;;;;;;;;;8.00;99.90;;;;;;5072318;28;19912;-71
2021/04/18 10:27:24;;;;;;;;;;;8.00;99.90;;;;;;5071167;28;19909;-71
2021/04/18 10:29:49;;;;;;;;;;;8.10;99.90;;;;;;5071677;28;19909;-72
2021/04/18 10:32:16;;;;;;;;;;;8.20;99.90;;;;;;5072152;28;20330;-71
2021/04/18 10:34:42;;;;;;;;;;;8.20;99.90;;;;;;5072275;28;19951;-71
2021/04/18 10:37:07;;;;;;;;;;;8.30;99.90;;;;;;5070920;28;19956;-71
2021/04/18 10:39:33;;;;;;;;;;;8.20;99.90;;;;;;5071874;28;19979;-71
2021/04/18 10:41:59;;;;;;;;;;;8.30;99.90;;;;;;5071840;28;19916;-71
2021/04/18 10:44:26;;;;;;;;;;;8.40;99.90;;;;;;5070834;28;19919;-71
2021/04/18 10:46:53;;;;;;;;;;;8.50;99.90;;;;;;5070829;28;19996;-71
2021/04/18 10:49:19;;;;;;;;;;;8.60;99.90;;;;;;5071005;28;19909;-71
2021/04/18 10:51:45;;;;;;;;;;;8.80;99.90;;;;;;5071860;28;19940;-72
2021/04/18 10:54:11;;;;;;;;;;;9.00;99.90;;;;;;5071606;28;19916;-71
2021/04/18 10:56:37;;;;;;;;;;;9.10;99.90;;;;;;5070630;28;19916;-71
2021/04/18 10:59:03;;;;;;;;;;;9.10;99.90;;;;;;5071513;28;19920;-71
2021/04/18 11:01:28;;;;;;;;;;;9.30;99.90;;;;;;5071497;28;19944;-73
2021/04/18 11:03:54;;;;;;;;;;;9.40;99.90;;;;;;5071815;28;19952;-71
2021/04/18 11:06:20;;;;;;;;;;;9.40;99.90;;;;;;5070410;28;19909;-71
2021/04/18 11:08:45;;;;;;;;;;;9.50;99.90;;;;;;5071418;28;19912;-72
2021/04/18 11:11:14;;;;;;;;;;;9.40;99.90;;;;;;5071500;28;19908;-72
2021/04/18 11:13:39;;;;;;;;;;;9.40;99.90;;;;;;5071387;28;20056;-71
2021/04/18 11:16:05;;;;;;;;;;;9.30;99.90;;;;;;5070177;28;20377;-72
2021/04/18 11:18:31;;;;;;;;;;;9.20;99.90;;;;;;5069911;28;19963;-72
2021/04/18 11:20:56;;;;;;;;;;;9.20;99.90;;;;;;5071213;28;19939;-71
2021/04/18 11:23:22;;;;;;;;;;;9.30;99.90;;;;;;5071290;28;19955;-71
2021/04/18 11:25:47;;;;;;;;;;;9.20;99.90;;;;;;5070147;28;19909;-71
2021/04/18 11:28:13;;;;;;;;;;;9.20;99.90;;;;;;5070997;28;19912;-73
2021/04/18 11:30:38;;;;;;;;;;;9.20;99.90;;;;;;5070935;28;19912;-72
2021/04/18 11:33:04;;;;;;;;;;;9.20;99.90;;;;;;5071367;28;20278;-71
2021/04/18 11:35:29;;;;;;;;;;;9.10;99.90;;;;;;5071131;28;19913;-71
2021/04/18 11:37:56;;;;;;;;;;;9.10;99.90;;;;;;5070558;28;19924;-71
2021/04/18 11:40:25;;;;;;;;;;;9.00;99.90;;;;;;5070724;28;20373;-71
2021/04/18 11:42:52;;;;;;;;;;;8.90;99.90;;;;;;5070936;28;19916;-71
2021/04/18 11:45:18;;;;;;;;;;;8.90;99.90;;;;;;5070936;28;19952;-71
2021/04/18 11:47:43;;;;;;;;;;;8.80;99.90;;;;;;5069231;28;20004;-72
2021/04/18 11:50:09;;;;;;;;;;;8.80;99.90;;;;;;5070968;28;19909;-72
2021/04/18 11:52:35;;;;;;;;;;;8.80;99.90;;;;;;5070680;28;19916;-72
2021/04/18 11:55:00;;;;;;;;;;;8.80;99.90;;;;;;5073140;28;20405;-73
2021/04/18 11:57:25;;;;;;;;;;;8.90;99.90;;;;;;5074148;28;20409;-73
2021/04/18 11:59:51;;;;;;;;;;;9.00;99.90;;;;;;5075105;28;19932;-72
2021/04/18 12:02:16;;;;;;;;;;;9.10;99.90;;;;;;5074958;28;19908;-72
2021/04/18 12:04:42;;;;;;;;;;;9.20;99.90;;;;;;5074753;28;19931;-73
2021/04/18 12:07:07;;;;;;;;;;;9.40;99.90;;;;;;5073989;28;19915;-72
2021/04/18 12:09:33;;;;;;;;;;;9.70;99.90;;;;;;5075351;28;19908;-72
2021/04/18 12:12:00;;;;;;;;;;;10.00;99.90;;;;;;5074624;28;19909;-72
2021/04/18 12:14:25;;;;;;;;;;;10.30;99.90;;;;;;5074843;28;20468;-72
2021/04/18 12:16:51;;;;;;;;;;;10.50;99.90;;;;;;5073217;28;20087;-72
2021/04/18 12:19:16;;;;;;;;;;;10.70;99.90;;;;;;5073373;28;19909;-73
2021/04/18 12:21:42;;;;;;;;;;;10.80;99.90;;;;;;5074693;28;19915;-71
2021/04/18 12:24:08;;;;;;;;;;;10.70;99.70;;;;;;5074656;28;19977;-72
2021/04/18 12:26:33;;;;;;;;;;;10.50;99.60;;;;;;5073395;28;19943;-72
2021/04/18 12:28:59;;;;;;;;;;;10.60;99.90;;;;;;5074276;28;19908;-72
2021/04/18 12:31:24;;;;;;;;;;;10.50;99.70;;;;;;5074320;28;19908;-72
2021/04/18 12:33:50;;;;;;;;;;;10.60;99.80;;;;;;5074519;28;20285;-72
2021/04/18 12:36:15;;;;;;;;;;;10.60;99.20;;;;;;5073360;28;19969;-72
2021/04/18 12:38:41;;;;;;;;;;;10.60;99.30;;;;;;5073803;28;19919;-73
2021/04/18 12:41:06;;;;;;;;;;;10.70;99.90;;;;;;5073872;28;20387;-72
2021/04/18 12:43:32;;;;;;;;;;;10.70;99.80;;;;;;5073960;28;19908;-72
2021/04/18 12:45:59;;;;;;;;;;;10.80;98.80;;;;;;5072825;28;19917;-72
2021/04/18 12:48:24;;;;;;;;;;;10.60;98.80;;;;;;5072801;28;19908;-72
2021/04/18 12:50:49;;;;;;;;;;;10.60;99.70;;;;;;5073911;28;19916;-72
2021/04/18 12:53:15;;;;;;;;;;;10.60;99.70;;;;;;5073908;28;19913;-73
2021/04/18 12:55:40;;;;;;;;;;;10.50;99.50;;;;;;5072707;28;19912;-72
2021/04/18 12:58:06;;;;;;;;;;;10.60;99.10;;;;;;5073862;28;20384;-72
2021/04/18 13:00:32;;;;;;;;;;;10.70;98.50;;;;;;5073748;28;20324;-73
2021/04/18 13:02:58;;;;;;;;;;;11.00;99.60;;;;;;5073787;28;19908;-72
2021/04/18 13:05:24;;;;;;;;;;;11.30;98.70;;;;;;5073241;28;19909;-72
2021/04/18 13:07:49;;;;;;;;;;;11.60;97.90;;;;;;5071053;28;19919;-72
2021/04/18 13:10:15;;;;;;;;;;;12.00;98.40;;;;;;5073596;28;19912;-72
2021/04/18 13:12:44;;;;;;;;;;;12.70;97.80;;;;;;5073695;28;20026;-72
2021/04/18 13:15:11;;;;;;;;;;;13.20;96.30;;;;;;5073413;28;19990;-73
2021/04/18 13:17:37;;;;;;;;;;;13.10;94.40;;;;;;5071099;28;19916;-72
2021/04/18 13:20:03;;;;;;;;;;;12.60;94.60;;;;;;5072116;28;20380;-73
2021/04/18 13:22:29;;;;;;;;;;;12.40;95.40;;;;;;5073463;28;19932;-72
2021/04/18 13:24:54;;;;;;;;;;;12.40;96.70;;;;;;5073334;28;20081;-72
2021/04/18 13:27:20;;;;;;;;;;;12.30;95.70;;;;;;5072388;28;19909;-72
2021/04/18 13:29:45;;;;;;;;;;;12.00;95.30;;;;;;5073268;28;19960;-72
2021/04/18 13:32:11;;;;;;;;;;;11.80;95.60;;;;;;5072925;28;19951;-72
2021/04/18 13:34:37;;;;;;;;;;;11.60;94.90;;;;;;5073362;28;19994;-72
2021/04/18 13:37:03;;;;;;;;;;;11.40;95.10;;;;;;5072024;28;19917;-72
2021/04/18 13:39:28;;;;;;;;;;;11.20;95.40;;;;;;5072827;28;20404;-72
2021/04/18 13:41:54;;;;;;;;;;;11.10;95.80;;;;;;5073109;28;19977;-72
2021/04/18 13:44:19;;;;;;;;;;;10.90;95.70;;;;;;5073186;28;20451;-72
2021/04/18 13:46:45;;;;;;;;;;;10.90;96.10;;;;;;5071736;28;19912;-73
2021/04/18 13:49:11;;;;;;;;;;;11.00;95.50;;;;;;5071825;28;20006;-72
2021/04/18 13:51:37;;;;;;;;;;;11.10;96.00;;;;;;5092545;28;20432;-73
2021/04/18 13:54:03;;;;;;;;;;;11.30;96.50;;;;;;5092838;28;20369;-72
2021/04/18 13:56:28;;;;;;;;;;;11.40;96.80;;;;;;5092114;28;19908;-73
2021/04/18 13:58:54;;;;;;;;;;;11.60;97.30;;;;;;5092938;28;19912;-73
2021/04/18 14:01:20;;;;;;;;;;;11.80;97.00;;;;;;5092739;28;19908;-73
2021/04/18 14:03:46;;;;;;;;;;;11.90;95.30;;;;;;5092756;28;20381;-73
2021/04/18 14:06:12;;;;;;;;;;;11.90;94.90;;;;;;5091874;28;19916;-73
2021/04/18 14:08:38;;;;;;;;;;;12.00;95.70;;;;;;5092609;28;19909;-73
2021/04/18 14:11:04;;;;;;;;;;;12.00;95.30;;;;;;5092849;28;19908;-74
2021/04/18 14:13:30;;;;;;;;;;;11.90;94.20;;;;;;5091428;28;19915;-73
2021/04/18 14:15:55;;;;;;;;;;;11.70;94.90;;;;;;5091287;28;20308;-73
2021/04/18 14:18:21;;;;;;;;;;;11.60;95.50;;;;;;5080811;28;20374;-73
2021/04/18 14:20:46;;;;;;;;;;;11.60;95.50;;;;;;5072457;28;19908;-73
2021/04/18 14:23:11;;;;;;;;;;;11.50;95.20;;;;;;5071932;28;19978;-73
2021/04/18 14:25:37;;;;;;;;;;;11.30;94.50;;;;;;5071720;28;19913;-74